createdAt,value
2018-03-21T00:00:00.280Z,26.57
2018-03-21T00:02:26.539Z,21.73
2018-03-21T00:04:54.511Z,20.60
2018-03-21T00:07:20.745Z,27.40
2018-03-21T00:09:47.100Z,23.37
2018-03-21T00:12:14.343Z,21.90
2018-03-21T00:14:42.007Z,29.20
2018-03-21T00:17:09.674Z,19.73
2018-03-21T00:19:35.920Z,25.13
2018-03-21T00:22:02.930Z,17.63
2018-03-21T00:24:29.189Z,23.23
2018-03-21T00:26:55.429Z,19.83
2018-03-21T00:29:22.981Z,19.47
2018-03-21T00:31:49.741Z,26.20
2018-03-21T00:34:17.205Z,25.43
2018-03-21T00:36:44.672Z,32.47
2018-03-21T00:39:11.744Z,21.53
2018-03-21T00:41:38.674Z,25.03
2018-03-21T00:44:06.111Z,21.70
2018-03-21T00:46:32.359Z,18.30
2018-03-21T00:48:58.602Z,26.13
2018-03-21T00:51:25.669Z,29.73
2018-03-21T00:53:53.218Z,24.43
2018-03-21T00:56:20.213Z,21.10
2018-03-21T00:58:47.080Z,20.03
2018-03-21T01:01:13.350Z,19.47
2018-03-21T01:03:40.335Z,24.33
2018-03-21T01:06:07.149Z,25.27
2018-03-21T01:08:34.138Z,30.60
2018-03-21T01:11:01.056Z,25.57
2018-03-21T01:13:28.107Z,18.77
2018-03-21T01:15:55.090Z,18.67
2018-03-21T01:18:22.002Z,22.60
2018-03-21T01:20:48.256Z,26.37
2018-03-21T01:23:15.284Z,29.40
2018-03-21T01:25:42.855Z,27.30
2018-03-21T01:28:10.350Z,23.00
2018-03-21T01:30:36.981Z,26.50
2018-03-21T01:33:03.582Z,21.73
2018-03-21T01:35:31.106Z,35.27
2018-03-21T01:37:57.399Z,27.30
2018-03-21T01:40:24.874Z,32.43
2018-03-21T01:42:52.352Z,24.70
2018-03-21T01:45:19.077Z,35.47
2018-03-21T01:47:46.065Z,28.30
2018-03-21T01:50:12.320Z,27.40
2018-03-21T01:52:39.110Z,24.03
2018-03-21T01:55:06.102Z,27.33
2018-03-21T01:57:32.423Z,29.50
2018-03-21T01:59:59.242Z,25.43
2018-03-21T02:02:26.226Z,31.80
2018-03-21T02:04:53.151Z,28.57
2018-03-21T02:07:20.166Z,26.50
2018-03-21T02:09:46.942Z,24.70
2018-03-21T02:12:13.912Z,24.00
2018-03-21T02:14:40.154Z,20.47
2018-03-21T02:17:07.146Z,21.03
2018-03-21T02:19:33.407Z,21.63
2018-03-21T02:21:59.647Z,27.13
2018-03-21T02:24:27.097Z,21.97
2018-03-21T02:26:53.958Z,18.90
2018-03-21T02:29:20.945Z,22.57
2018-03-21T02:31:47.768Z,30.23
2018-03-21T02:34:15.431Z,19.87
2018-03-21T02:36:42.892Z,22.30
2018-03-21T02:39:10.348Z,25.87
2018-03-21T02:41:37.914Z,20.57
2018-03-21T02:44:04.897Z,21.77
2018-03-21T02:46:31.136Z,22.60
2018-03-21T02:48:57.637Z,18.47
2018-03-21T02:51:24.663Z,18.70
2018-03-21T02:54:06.252Z,24.10
2018-03-21T02:56:32.496Z,26.00
2018-03-21T02:58:58.753Z,21.97
2018-03-21T03:01:25.748Z,20.13
2018-03-21T03:03:52.122Z,15.70
2018-03-21T03:06:20.218Z,17.53
2018-03-21T03:08:47.217Z,15.37
2018-03-21T03:11:13.475Z,14.90
2018-03-21T03:13:39.735Z,28.00
2018-03-21T03:16:06.718Z,25.30
2018-03-21T03:18:33.420Z,19.53
2018-03-21T03:21:00.062Z,18.93
2018-03-21T03:23:27.041Z,19.63
2018-03-21T03:25:53.361Z,15.00
2018-03-21T03:28:20.366Z,19.90
2018-03-21T03:30:48.107Z,18.93
2018-03-21T03:33:14.833Z,18.93
2018-03-21T03:35:42.383Z,29.40
2018-03-21T03:38:10.770Z,32.37
2018-03-21T03:40:53.158Z,26.37
2018-03-21T03:43:19.424Z,30.87
2018-03-21T03:45:45.678Z,30.53
2018-03-21T03:48:12.290Z,21.83
2018-03-21T03:50:39.377Z,22.03
2018-03-21T03:53:06.081Z,19.53
2018-03-21T03:55:33.095Z,17.30
2018-03-21T03:57:59.354Z,22.57
2018-03-21T04:00:25.626Z,16.10
2018-03-21T04:02:51.886Z,24.43
2018-03-21T04:05:18.569Z,27.13
2018-03-21T04:07:44.862Z,20.23
2018-03-21T04:10:12.697Z,19.70
2018-03-21T04:12:40.651Z,22.50
2018-03-21T04:15:07.695Z,25.90
2018-03-21T04:17:34.374Z,22.37
2018-03-21T04:20:01.830Z,19.80
2018-03-21T04:22:28.862Z,22.17
2018-03-21T04:24:55.114Z,19.53
2018-03-21T04:27:22.473Z,15.87
2018-03-21T04:29:49.455Z,22.00
2018-03-21T04:32:16.154Z,21.80
2018-03-21T04:34:43.706Z,27.57
2018-03-21T04:37:10.430Z,21.40
2018-03-21T04:39:36.709Z,18.37
2018-03-21T04:42:04.127Z,14.90
2018-03-21T04:44:30.388Z,17.30
2018-03-21T04:46:56.665Z,25.67
2018-03-21T04:49:23.241Z,19.97
2018-03-21T04:51:50.137Z,26.23
2018-03-21T04:54:18.320Z,25.20
2018-03-21T04:56:45.319Z,21.70
2018-03-21T04:59:11.602Z,22.10
2018-03-21T05:01:39.166Z,23.27
2018-03-21T05:04:06.182Z,27.47
2018-03-21T05:06:32.889Z,27.73
2018-03-21T05:08:59.144Z,19.23
2018-03-21T05:11:25.886Z,19.77
2018-03-21T05:13:52.150Z,19.60
2018-03-21T05:16:18.802Z,21.73
2018-03-21T05:18:45.521Z,29.97
2018-03-21T05:21:11.774Z,29.67
2018-03-21T05:23:38.022Z,25.17
2018-03-21T05:26:05.023Z,20.73
2018-03-21T05:28:31.271Z,18.53
2018-03-21T05:30:59.505Z,22.33
2018-03-21T05:33:27.156Z,36.27
2018-03-21T05:35:53.775Z,37.97
2018-03-21T05:38:20.034Z,32.57
2018-03-21T05:40:47.601Z,39.30
2018-03-21T05:43:14.590Z,44.10
2018-03-21T05:45:41.409Z,37.03
2018-03-21T05:48:08.405Z,36.43
2018-03-21T05:50:34.665Z,27.23
2018-03-21T05:53:01.453Z,34.50
2018-03-21T05:55:27.705Z,30.27
2018-03-21T05:57:55.284Z,36.03
2018-03-21T06:00:22.006Z,30.07
2018-03-21T06:02:48.254Z,22.30
2018-03-21T06:05:15.030Z,28.47
2018-03-21T06:07:41.281Z,24.70
2018-03-21T06:10:08.313Z,30.17
2018-03-21T06:12:34.680Z,29.13
2018-03-21T06:15:02.167Z,27.27
2018-03-21T06:17:28.427Z,23.40
2018-03-21T06:19:54.713Z,29.43
2018-03-21T06:22:21.977Z,49.73
2018-03-21T06:24:48.982Z,39.27
2018-03-21T06:27:15.305Z,31.63
2018-03-21T06:29:42.121Z,31.33
2018-03-21T06:32:09.894Z,34.30
2018-03-21T06:34:37.350Z,37.57
2018-03-21T06:37:04.806Z,23.93
2018-03-21T06:39:31.785Z,25.33
2018-03-21T06:41:58.362Z,28.53
2018-03-21T06:44:24.616Z,23.20
2018-03-21T06:46:50.858Z,24.07
2018-03-21T06:49:17.865Z,28.47
2018-03-21T06:51:44.787Z,22.83
2018-03-21T06:54:11.466Z,22.27
2018-03-21T06:56:39.934Z,25.07
2018-03-21T06:59:06.751Z,30.60
2018-03-21T07:01:33.734Z,29.87
2018-03-21T07:04:00.017Z,22.40
2018-03-21T07:06:27.446Z,24.67
2018-03-21T07:08:53.690Z,33.27
2018-03-21T07:11:20.576Z,35.43
2018-03-21T07:13:59.841Z,22.80
2018-03-21T07:16:38.742Z,27.30
2018-03-21T07:19:06.120Z,40.77
2018-03-21T07:21:32.941Z,25.60
2018-03-21T07:23:59.924Z,31.57
2018-03-21T07:26:26.964Z,33.40
2018-03-21T07:28:53.234Z,26.57
2018-03-21T07:31:20.136Z,27.33
2018-03-21T07:33:47.126Z,24.20
2018-03-21T07:36:13.923Z,23.43
2018-03-21T07:38:40.914Z,24.93
2018-03-21T07:41:08.143Z,27.23
2018-03-21T07:43:35.134Z,19.83
2018-03-21T07:46:01.406Z,26.17
2018-03-21T07:48:28.041Z,25.60
2018-03-21T07:50:54.295Z,24.77
2018-03-21T07:53:21.056Z,20.07
2018-03-21T07:55:48.358Z,24.50
2018-03-21T07:58:14.620Z,22.23
2018-03-21T08:00:41.614Z,24.50
2018-03-21T08:03:07.904Z,23.47
2018-03-21T08:05:34.615Z,26.63
2018-03-21T08:08:00.908Z,27.90
2018-03-21T08:10:28.241Z,22.40
2018-03-21T08:12:54.503Z,25.67
2018-03-21T08:15:21.494Z,20.30
2018-03-21T08:17:47.774Z,26.40
2018-03-21T08:20:14.639Z,21.37
2018-03-21T08:22:41.635Z,19.27
2018-03-21T08:25:08.791Z,24.37
2018-03-21T08:27:35.010Z,28.50
2018-03-21T08:30:01.327Z,21.53
2018-03-21T08:32:28.655Z,16.30
2018-03-21T08:34:56.383Z,14.67
2018-03-21T08:37:23.111Z,19.90
2018-03-21T08:39:49.370Z,23.23
2018-03-21T08:42:16.045Z,29.70
2018-03-21T08:44:43.478Z,21.07
2018-03-21T08:47:09.741Z,20.47
2018-03-21T08:49:36.744Z,23.40
2018-03-21T08:52:03.634Z,18.33
2018-03-21T08:54:29.883Z,33.30
2018-03-21T08:56:56.144Z,23.03
2018-03-21T08:59:23.802Z,21.07
2018-03-21T09:01:50.789Z,22.17
2018-03-21T09:04:17.034Z,25.10
2018-03-21T09:06:44.034Z,21.73
2018-03-21T09:09:11.071Z,40.40
2018-03-21T09:11:37.329Z,20.93
2018-03-21T09:14:04.414Z,35.87
2018-03-21T09:16:30.655Z,19.73
2018-03-21T09:18:57.441Z,17.60
2018-03-21T09:21:23.689Z,14.03
2018-03-21T09:23:51.345Z,21.20
2018-03-21T09:26:18.349Z,18.83
2018-03-21T09:28:44.592Z,20.00
2018-03-21T09:31:11.389Z,21.90
2018-03-21T09:33:38.351Z,22.97
2018-03-21T09:36:05.807Z,23.30
2018-03-21T09:38:32.055Z,25.23
2018-03-21T09:40:59.081Z,18.60
2018-03-21T09:43:25.834Z,22.97
2018-03-21T09:45:52.842Z,23.70
2018-03-21T09:48:19.090Z,22.43
2018-03-21T09:50:45.873Z,25.13
2018-03-21T09:53:13.222Z,20.97
2018-03-21T09:55:39.463Z,20.80
2018-03-21T09:58:06.503Z,27.23
2018-03-21T10:00:33.054Z,22.00
2018-03-21T10:03:00.043Z,19.20
2018-03-21T10:05:26.743Z,23.37
2018-03-21T10:07:52.987Z,20.07
2018-03-21T10:10:19.985Z,25.77
2018-03-21T10:12:46.486Z,25.90
2018-03-21T10:15:13.497Z,17.07
2018-03-21T10:17:39.838Z,24.03
2018-03-21T10:20:06.636Z,27.83
2018-03-21T10:22:32.894Z,23.00
2018-03-21T10:24:59.586Z,24.53
2018-03-21T10:27:25.844Z,28.90
2018-03-21T10:29:52.087Z,24.07
2018-03-21T10:32:18.913Z,25.13
2018-03-21T10:34:45.881Z,22.87
2018-03-21T10:37:12.709Z,20.20
2018-03-21T10:39:38.906Z,21.40
2018-03-21T10:42:06.410Z,21.00
2018-03-21T10:44:33.438Z,21.70
2018-03-21T10:46:59.726Z,22.33
2018-03-21T10:49:26.523Z,17.83
2018-03-21T10:51:53.289Z,21.57
2018-03-21T10:54:20.299Z,21.87
2018-03-21T10:56:46.541Z,21.70
2018-03-21T10:59:13.113Z,21.30
2018-03-21T11:01:40.722Z,26.13
2018-03-21T11:04:07.040Z,28.57
2018-03-21T11:06:33.771Z,28.60
2018-03-21T11:09:00.042Z,25.33
2018-03-21T11:11:26.308Z,29.63
2018-03-21T11:13:52.870Z,29.53
2018-03-21T11:16:19.870Z,35.83
2018-03-21T11:18:46.545Z,31.13
2018-03-21T11:21:12.822Z,30.43
2018-03-21T11:23:39.054Z,29.60
2018-03-21T11:26:05.393Z,32.80
2018-03-21T11:28:31.695Z,30.77
2018-03-21T11:30:59.078Z,29.93
2018-03-21T11:33:26.113Z,28.20
2018-03-21T11:35:53.132Z,30.80
2018-03-21T11:38:19.393Z,30.80
2018-03-21T11:40:46.359Z,30.47
2018-03-21T11:43:13.346Z,33.80
2018-03-21T11:45:40.062Z,29.50
2018-03-21T11:48:07.111Z,33.47
2018-03-21T11:50:34.120Z,35.70
2018-03-21T11:53:00.680Z,30.33
2018-03-21T11:55:28.162Z,28.13
2018-03-21T11:57:55.150Z,29.80
2018-03-21T12:00:21.962Z,28.20
2018-03-21T12:02:48.960Z,26.60
2018-03-21T12:05:15.760Z,31.90
2018-03-21T12:07:42.788Z,22.50
2018-03-21T12:10:09.147Z,31.53
2018-03-21T12:12:37.646Z,20.03
2018-03-21T12:15:05.414Z,27.00
2018-03-21T12:17:32.414Z,29.63
2018-03-21T12:19:58.693Z,31.00
2018-03-21T12:22:25.647Z,25.17
2018-03-21T12:24:52.642Z,25.10
2018-03-21T12:27:19.001Z,20.60
2018-03-21T12:29:46.590Z,19.00
2018-03-21T12:32:14.054Z,24.60
2018-03-21T12:34:41.050Z,21.57
2018-03-21T12:37:07.807Z,26.57
2018-03-21T12:39:34.052Z,21.87
2018-03-21T12:42:00.833Z,27.50
2018-03-21T12:44:28.169Z,27.47
2018-03-21T12:46:54.402Z,30.60
2018-03-21T12:49:22.126Z,27.50
2018-03-21T12:51:49.463Z,27.53
2018-03-21T12:54:16.513Z,26.37
2018-03-21T12:56:44.073Z,26.20
2018-03-21T12:59:11.065Z,27.43
2018-03-21T13:01:37.347Z,24.97
2018-03-21T13:04:04.106Z,30.37
2018-03-21T13:06:31.670Z,25.80
2018-03-21T13:08:58.666Z,25.00
2018-03-21T13:11:25.455Z,28.93
2018-03-21T13:13:52.302Z,27.40
2018-03-21T13:16:18.662Z,28.60
2018-03-21T13:18:46.302Z,28.80
2018-03-21T13:21:12.565Z,31.97
2018-03-21T13:23:39.550Z,33.80
2018-03-21T13:26:06.168Z,31.23
2018-03-21T13:28:32.448Z,33.83
2018-03-21T13:30:59.349Z,30.57
2018-03-21T13:33:25.582Z,33.53
2018-03-21T13:35:52.496Z,34.53
2018-03-21T13:38:18.849Z,29.13
2018-03-21T13:40:45.654Z,31.27
2018-03-21T13:43:12.541Z,26.23
2018-03-21T13:45:38.777Z,27.30
2018-03-21T13:48:05.093Z,31.30
2018-03-21T13:50:32.385Z,28.20
2018-03-21T13:53:00.058Z,25.10
2018-03-21T13:55:27.471Z,27.30
2018-03-21T14:00:51.889Z,27.53
2018-03-21T14:03:18.442Z,28.60
2018-03-21T14:05:45.734Z,29.40
2018-03-21T14:08:13.510Z,32.20
2018-03-21T14:10:40.327Z,32.90
2018-03-21T14:13:07.378Z,30.57
2018-03-21T14:15:34.366Z,30.60
2018-03-21T14:18:00.623Z,34.10
2018-03-21T14:20:27.423Z,28.47
2018-03-21T14:22:53.674Z,35.77
2018-03-21T14:25:20.022Z,44.67
2018-03-21T14:27:46.282Z,40.47
2018-03-21T14:30:12.527Z,31.00
2018-03-21T14:32:39.295Z,29.60
2018-03-21T14:35:06.334Z,36.23
2018-03-21T14:37:33.500Z,28.07
2018-03-21T14:40:00.506Z,27.60
2018-03-21T14:42:27.181Z,22.70
2018-03-21T14:44:53.426Z,23.97
2018-03-21T14:47:20.398Z,27.03
2018-03-21T14:49:47.025Z,21.43
2018-03-21T14:52:14.527Z,26.30
2018-03-21T14:54:41.343Z,23.17
2018-03-21T14:57:08.323Z,21.77
2018-03-21T14:59:34.582Z,21.53
2018-03-21T15:02:00.851Z,26.50
2018-03-21T15:04:27.922Z,27.00
2018-03-21T15:06:54.774Z,24.70
2018-03-21T15:09:21.511Z,25.73
2018-03-21T15:11:48.950Z,27.70
2018-03-21T15:14:15.206Z,26.13
2018-03-21T15:16:42.194Z,27.60
2018-03-21T15:19:08.869Z,22.40
2018-03-21T15:21:35.073Z,24.33
2018-03-21T15:24:01.444Z,29.60
2018-03-21T15:26:28.095Z,25.93
2018-03-21T15:28:54.337Z,28.40
2018-03-21T15:31:21.510Z,37.67
2018-03-21T15:33:48.497Z,34.20
2018-03-21T15:36:15.294Z,25.80
2018-03-21T15:38:42.282Z,25.17
2018-03-21T15:41:09.294Z,26.90
2018-03-21T15:43:36.876Z,24.40
2018-03-21T15:46:03.872Z,28.80
2018-03-21T15:48:30.137Z,22.20
2018-03-21T15:50:57.102Z,21.70
2018-03-21T15:53:24.518Z,38.27
2018-03-21T15:55:50.750Z,27.57
2018-03-21T15:58:17.064Z,29.07
2018-03-21T16:00:43.297Z,51.97
2018-03-21T16:03:09.540Z,28.67
2018-03-21T16:05:36.185Z,37.67
2018-03-21T16:08:02.441Z,27.77
2018-03-21T16:10:28.706Z,23.70
2018-03-21T16:12:55.572Z,34.67
2018-03-21T16:15:22.558Z,38.30
2018-03-21T16:17:48.846Z,35.43
2018-03-21T16:20:15.894Z,24.57
2018-03-21T16:22:42.151Z,42.53
2018-03-21T16:25:08.486Z,29.70
2018-03-21T16:27:35.500Z,24.17
2018-03-21T16:30:02.338Z,37.13
2018-03-21T16:32:31.372Z,37.73
2018-03-21T16:34:58.957Z,31.67
2018-03-21T16:37:26.094Z,42.50
2018-03-21T16:39:53.095Z,50.77
2018-03-21T16:42:19.794Z,28.77
2018-03-21T16:44:46.781Z,38.27
2018-03-21T16:47:13.473Z,25.40
2018-03-21T16:49:39.730Z,24.67
2018-03-21T16:52:07.479Z,26.47
2018-03-21T16:54:34.102Z,43.30
2018-03-21T16:57:02.418Z,33.20
2018-03-21T16:59:29.444Z,54.10
2018-03-21T17:01:57.185Z,55.80
2018-03-21T17:04:23.956Z,28.50
2018-03-21T17:06:50.778Z,36.40
2018-03-21T17:09:17.015Z,28.80
2018-03-21T17:11:43.732Z,28.73
2018-03-21T17:14:10.406Z,33.73
2018-03-21T17:16:36.683Z,35.20
2018-03-21T17:19:03.723Z,28.70
2018-03-21T17:21:29.974Z,31.17
2018-03-21T17:23:56.974Z,31.40
2018-03-21T17:26:23.326Z,30.67
2018-03-21T17:28:50.017Z,30.63
2018-03-21T17:31:16.672Z,27.63
2018-03-21T17:33:43.324Z,30.33
2018-03-21T17:36:10.457Z,22.10
2018-03-21T17:38:37.489Z,25.20
2018-03-21T17:41:03.790Z,24.90
2018-03-21T17:43:30.455Z,17.40
2018-03-21T17:45:58.861Z,16.77
2018-03-21T17:48:25.846Z,26.63
2018-03-21T17:50:52.102Z,27.10
2018-03-21T17:53:19.193Z,20.87
2018-03-21T17:55:45.442Z,22.40
2018-03-21T17:58:12.431Z,32.63
2018-03-21T18:00:39.357Z,31.70
2018-03-21T18:03:05.617Z,31.90
2018-03-21T18:05:32.407Z,27.77
2018-03-21T18:07:59.406Z,30.10
2018-03-21T18:10:26.110Z,33.40
2018-03-21T18:12:53.098Z,33.00
2018-03-21T18:15:19.351Z,29.13
2018-03-21T18:17:45.625Z,32.20
2018-03-21T18:20:11.985Z,33.43
2018-03-21T18:22:38.350Z,34.60
2018-03-21T18:25:05.390Z,31.23
2018-03-21T18:27:31.647Z,26.47
2018-03-21T18:29:58.817Z,23.17
2018-03-21T18:32:25.588Z,25.80
2018-03-21T18:34:51.862Z,20.67
2018-03-21T18:37:18.462Z,24.97
2018-03-21T18:39:44.721Z,39.20
2018-03-21T18:42:12.166Z,28.67
2018-03-21T18:44:39.161Z,25.67
2018-03-21T18:47:05.414Z,31.07
2018-03-21T18:49:31.906Z,24.57
2018-03-21T18:51:59.398Z,21.40
2018-03-21T18:54:25.738Z,21.63
2018-03-21T18:56:52.046Z,22.07
2018-03-21T18:59:19.601Z,33.20
2018-03-21T19:01:45.886Z,23.23
2018-03-21T19:04:12.571Z,21.63
2018-03-21T19:06:39.247Z,19.00
2018-03-21T19:09:05.523Z,17.87
2018-03-21T19:11:32.297Z,28.30
2018-03-21T19:13:59.278Z,22.27
2018-03-21T19:16:26.193Z,25.83
2018-03-21T19:18:53.198Z,34.80
2018-03-21T19:21:19.438Z,36.60
2018-03-21T19:23:46.038Z,32.70
2018-03-21T19:26:13.902Z,36.37
2018-03-21T19:28:40.878Z,21.50
2018-03-21T19:31:07.815Z,20.63
2018-03-21T19:33:35.405Z,20.50
2018-03-21T19:36:02.223Z,20.87
2018-03-21T19:38:29.265Z,34.67
2018-03-21T19:40:57.000Z,25.97
2018-03-21T19:43:23.887Z,21.97
2018-03-21T19:45:51.205Z,23.90
2018-03-21T19:48:17.563Z,29.27
2018-03-21T19:50:44.772Z,24.20
2018-03-21T19:53:11.720Z,34.83
2018-03-21T19:55:38.879Z,26.10
2018-03-21T19:58:05.265Z,21.17
2018-03-21T20:00:32.486Z,16.90
2018-03-21T20:02:59.064Z,15.93
2018-03-21T20:05:26.987Z,14.40
2018-03-21T20:07:53.526Z,16.90
2018-03-21T20:10:20.351Z,16.50
2018-03-21T20:12:48.217Z,15.17
2018-03-21T20:15:15.201Z,20.20
2018-03-21T20:17:41.903Z,17.87
2018-03-21T20:20:08.889Z,20.20
2018-03-21T20:22:35.153Z,15.00
2018-03-21T20:25:02.058Z,17.83
2018-03-21T20:27:28.332Z,26.70
2018-03-21T20:29:54.598Z,25.80
2018-03-21T20:32:21.462Z,16.10
2018-03-21T20:34:48.908Z,15.50
2018-03-21T20:37:15.566Z,14.30
2018-03-21T20:39:42.587Z,15.07
2018-03-21T20:42:09.396Z,23.23
2018-03-21T20:44:35.657Z,21.27
2018-03-21T20:47:01.919Z,18.20
2018-03-21T20:49:29.714Z,14.97
2018-03-21T20:52:12.214Z,16.30
2018-03-21T20:54:39.577Z,14.10
2018-03-21T20:57:06.575Z,13.33
2018-03-21T20:59:32.841Z,17.30
2018-03-21T21:01:59.414Z,15.47
2018-03-21T21:04:25.671Z,15.40
2018-03-21T21:06:52.586Z,16.17
2018-03-21T21:09:19.589Z,15.13
2018-03-21T21:11:46.200Z,27.00
2018-03-21T21:14:12.922Z,23.00
2018-03-21T21:16:40.000Z,16.03
2018-03-21T21:19:06.694Z,15.10
2018-03-21T21:21:33.438Z,14.30
2018-03-21T21:23:59.688Z,13.47
2018-03-21T21:26:25.958Z,15.17
2018-03-21T21:28:52.242Z,18.73
2018-03-21T21:31:19.327Z,19.60
2018-03-21T21:33:46.314Z,18.80
2018-03-21T21:36:13.046Z,15.87
2018-03-21T21:38:39.434Z,18.97
2018-03-21T21:41:06.073Z,17.23
2018-03-21T21:43:32.804Z,14.67
2018-03-21T21:45:59.062Z,18.00
2018-03-21T21:48:25.792Z,15.07
2018-03-21T21:50:52.561Z,16.13
2018-03-21T21:53:19.186Z,21.77
2018-03-21T21:55:45.458Z,21.40
2018-03-21T21:58:12.466Z,19.43
2018-03-21T22:00:39.082Z,18.90
2018-03-21T22:03:05.894Z,16.03
2018-03-21T22:05:33.334Z,17.00
2018-03-21T22:07:59.607Z,14.20
2018-03-21T22:10:26.443Z,14.13
2018-03-21T22:12:53.986Z,13.53
2018-03-21T22:15:20.252Z,17.57
2018-03-21T22:17:46.522Z,15.93
2018-03-21T22:20:13.433Z,14.73
2018-03-21T22:22:40.170Z,15.90
2018-03-21T22:25:07.172Z,14.10
2018-03-21T22:27:33.430Z,14.20
2018-03-21T22:29:59.914Z,16.83
2018-03-21T22:32:26.840Z,19.90
2018-03-21T22:34:54.407Z,18.70
2018-03-21T22:37:22.169Z,23.13
2018-03-21T22:39:49.142Z,18.00
2018-03-21T22:42:15.873Z,18.17
2018-03-21T22:44:43.455Z,14.93
2018-03-21T22:47:10.286Z,18.03
2018-03-21T22:49:37.735Z,14.70
2018-03-21T22:52:05.169Z,17.60
2018-03-21T22:54:31.437Z,14.57
2018-03-21T22:56:58.430Z,17.23
2018-03-21T22:59:24.910Z,26.93
2018-03-21T23:01:51.166Z,24.87
2018-03-21T23:04:18.345Z,21.60
2018-03-21T23:06:45.131Z,20.80
2018-03-21T23:09:11.382Z,17.67
2018-03-21T23:11:37.634Z,14.77
2018-03-21T23:14:04.846Z,19.03
2018-03-21T23:16:31.641Z,15.87
2018-03-21T23:18:58.617Z,19.63
2018-03-21T23:21:25.618Z,16.30
2018-03-21T23:23:51.865Z,16.73
2018-03-21T23:26:18.120Z,20.57
2018-03-21T23:28:45.422Z,13.43
2018-03-21T23:31:12.322Z,18.97
2018-03-21T23:33:39.331Z,18.07
2018-03-21T23:36:06.222Z,23.80
2018-03-21T23:38:33.253Z,16.07
2018-03-21T23:41:01.987Z,14.83
2018-03-21T23:43:28.800Z,15.63
2018-03-21T23:45:55.676Z,18.07
2018-03-21T23:48:22.531Z,16.50
2018-03-21T23:50:49.255Z,12.97
2018-03-21T23:53:16.615Z,14.83
2018-03-21T23:55:43.615Z,13.00
2018-03-21T23:58:09.875Z,13.00
